createdAt,value
2022-12-12T00:02:52.327Z,11.77
2022-12-12T00:07:55.861Z,11.13
2022-12-12T00:13:00.481Z,10.57
2022-12-12T00:18:03.630Z,11.23
2022-12-12T00:23:06.780Z,10.00
2022-12-12T00:28:11.283Z,10.50
2022-12-12T00:33:14.422Z,11.20
2022-12-12T00:38:18.285Z,11.30
2022-12-12T00:43:22.817Z,10.93
2022-12-12T00:48:25.987Z,11.63
2022-12-12T00:53:29.181Z,11.50
2022-12-12T00:58:34.580Z,10.90
2022-12-12T01:03:40.203Z,11.30
2022-12-12T01:08:43.691Z,11.47
2022-12-12T01:13:50.227Z,11.07
2022-12-12T01:18:53.523Z,10.27
2022-12-12T01:23:56.865Z,10.97
2022-12-12T01:29:01.332Z,11.23
2022-12-12T01:34:04.458Z,10.77
2022-12-12T01:39:07.619Z,10.93
2022-12-12T01:44:40.603Z,11.27
2022-12-12T01:49:47.403Z,10.33
2022-12-12T01:54:55.649Z,11.27
2022-12-12T02:00:01.966Z,12.20
2022-12-12T02:05:13.013Z,11.03
2022-12-12T02:10:16.338Z,12.00
2022-12-12T02:15:20.979Z,11.73
2022-12-12T02:20:49.720Z,10.70
2022-12-12T02:26:08.926Z,11.27
2022-12-12T02:31:19.935Z,10.87
2022-12-12T02:36:33.361Z,10.50
2022-12-12T02:41:40.529Z,11.47
2022-12-12T02:46:52.518Z,11.90
2022-12-12T02:51:58.360Z,11.77
2022-12-12T02:57:03.351Z,11.50
2022-12-12T03:02:27.508Z,11.90
2022-12-12T03:07:49.261Z,12.13
2022-12-12T03:13:00.984Z,11.73
2022-12-12T03:18:17.480Z,10.90
2022-12-12T03:23:25.756Z,11.97
2022-12-12T03:28:34.312Z,12.40
2022-12-12T03:33:42.689Z,11.20
2022-12-12T03:38:57.071Z,11.43
2022-12-12T03:44:05.776Z,11.53
2022-12-12T03:49:15.285Z,11.10
2022-12-12T03:54:23.505Z,10.87
2022-12-12T03:59:31.551Z,11.77
2022-12-12T04:04:39.942Z,10.90
2022-12-12T04:10:00.967Z,10.83
2022-12-12T04:15:18.787Z,9.07
2022-12-12T04:20:45.872Z,9.90
2022-12-12T04:26:22.578Z,11.77
2022-12-12T04:31:29.290Z,13.20
2022-12-12T04:36:35.894Z,13.40
2022-12-12T04:41:41.712Z,13.07
2022-12-12T04:46:46.904Z,11.70
2022-12-12T04:51:54.135Z,11.83
2022-12-12T04:57:01.022Z,13.43
2022-12-12T05:02:11.574Z,12.47
2022-12-12T05:07:22.480Z,10.27
2022-12-12T05:12:25.646Z,12.80
2022-12-12T05:17:36.370Z,12.23
2022-12-12T05:22:40.977Z,12.03
2022-12-12T05:27:44.169Z,12.63
2022-12-12T05:32:47.297Z,11.53
2022-12-12T05:37:52.371Z,12.30
2022-12-12T05:42:55.612Z,11.97
2022-12-12T05:47:58.988Z,12.30
2022-12-12T05:53:03.438Z,12.60
2022-12-12T05:58:06.639Z,12.63
2022-12-12T06:03:09.768Z,12.47
2022-12-12T06:08:14.612Z,11.93
2022-12-12T06:13:17.807Z,11.57
2022-12-12T06:18:20.920Z,11.57
2022-12-12T06:23:25.580Z,12.57
2022-12-12T06:28:28.692Z,11.67
2022-12-12T06:33:32.492Z,11.93
2022-12-12T06:38:37.632Z,12.30
2022-12-12T06:43:41.332Z,12.23
2022-12-12T06:48:45.402Z,10.60
2022-12-12T06:53:49.979Z,11.87
2022-12-12T06:58:54.463Z,12.33
2022-12-12T07:03:58.428Z,12.27
2022-12-12T07:09:03.250Z,12.07
2022-12-12T07:14:07.674Z,14.03
2022-12-12T07:19:11.258Z,15.80
2022-12-12T07:24:16.753Z,12.47
2022-12-12T07:29:19.916Z,12.80
2022-12-12T07:34:23.088Z,11.13
2022-12-12T07:39:30.115Z,13.73
2022-12-12T07:44:33.227Z,15.17
2022-12-12T07:49:36.344Z,15.53
2022-12-12T07:54:41.045Z,13.90
2022-12-12T07:59:44.190Z,14.60
2022-12-12T08:04:47.492Z,12.67
2022-12-12T08:09:52.128Z,13.27
2022-12-12T08:14:55.265Z,14.07
2022-12-12T08:19:58.472Z,13.27
2022-12-12T08:25:03.251Z,13.57
2022-12-12T08:30:10.275Z,13.57
2022-12-12T08:35:14.036Z,13.27
2022-12-12T08:40:18.995Z,13.60
2022-12-12T08:45:22.242Z,13.53
2022-12-12T08:50:25.568Z,13.57
2022-12-12T08:55:30.275Z,12.50
2022-12-12T09:00:33.391Z,12.63
2022-12-12T09:05:36.953Z,11.73
2022-12-12T09:10:41.876Z,12.27
2022-12-12T09:15:46.178Z,11.73
2022-12-12T09:20:50.716Z,12.10
2022-12-12T09:25:55.625Z,12.17
2022-12-12T09:30:58.775Z,11.40
2022-12-12T09:36:04.216Z,12.73
2022-12-12T09:41:16.554Z,13.30
2022-12-12T09:46:31.187Z,14.17
2022-12-12T09:51:35.683Z,12.80
2022-12-12T09:56:48.987Z,12.93
2022-12-12T10:02:01.791Z,12.60
2022-12-12T10:07:14.796Z,12.70
2022-12-12T10:12:22.344Z,12.83
2022-12-12T10:17:30.310Z,12.47
2022-12-12T10:22:39.317Z,13.03
2022-12-12T10:27:44.343Z,12.33
2022-12-12T10:33:06.744Z,13.87
2022-12-12T10:38:25.483Z,13.23
2022-12-12T10:43:35.464Z,13.60
2022-12-12T10:48:39.746Z,13.67
2022-12-12T10:53:43.848Z,13.30
2022-12-12T10:58:55.500Z,13.40
2022-12-12T11:04:01.357Z,13.93
2022-12-12T11:09:09.978Z,13.73
2022-12-12T11:14:28.386Z,13.90
2022-12-12T11:19:39.326Z,15.10
2022-12-12T11:24:46.338Z,14.10
2022-12-12T11:29:53.034Z,15.77
2022-12-12T11:34:59.106Z,14.57
2022-12-12T11:40:02.432Z,13.63
2022-12-12T11:45:23.763Z,15.30
2022-12-12T11:50:29.412Z,15.63
2022-12-12T11:55:45.891Z,15.20
2022-12-12T12:00:58.733Z,13.47
2022-12-12T12:06:18.981Z,17.13
2022-12-12T12:11:31.093Z,10.87
2022-12-12T12:16:44.998Z,8.63
2022-12-12T12:22:01.973Z,8.03
2022-12-12T12:27:12.528Z,6.70
2022-12-12T12:32:30.729Z,7.50
2022-12-12T12:37:48.340Z,7.00
2022-12-12T12:43:06.755Z,6.67
2022-12-12T12:48:19.172Z,6.80
2022-12-12T12:53:30.247Z,5.37
2022-12-12T12:58:40.187Z,8.40
2022-12-12T13:03:51.363Z,6.70
2022-12-12T13:09:02.541Z,6.40
2022-12-12T13:14:16.332Z,9.07
2022-12-12T13:19:29.197Z,8.33
2022-12-12T13:24:38.984Z,7.13
2022-12-12T13:29:49.029Z,7.57
2022-12-12T13:34:58.761Z,7.27
2022-12-12T13:40:05.074Z,7.73
2022-12-12T13:45:46.506Z,6.47
2022-12-12T13:51:30.318Z,7.03
2022-12-12T13:56:35.785Z,7.40
2022-12-12T14:01:40.918Z,7.10
2022-12-12T14:06:45.602Z,7.13
2022-12-12T14:11:50.824Z,8.07
2022-12-12T14:16:57.857Z,8.53
2022-12-12T14:22:02.750Z,9.23
2022-12-12T14:27:07.486Z,11.73
2022-12-12T14:32:36.765Z,9.73
2022-12-12T14:37:52.197Z,8.33
2022-12-12T14:43:20.125Z,7.93
2022-12-12T14:48:25.662Z,9.47
2022-12-12T14:53:33.935Z,8.37
2022-12-12T14:58:39.976Z,8.50
2022-12-12T15:03:47.053Z,8.77
2022-12-12T15:08:52.569Z,7.87
2022-12-12T15:13:57.194Z,8.80
2022-12-12T15:19:00.942Z,8.97
2022-12-12T15:24:06.076Z,8.83
2022-12-12T15:29:14.980Z,7.43
2022-12-12T15:34:40.268Z,8.47
2022-12-12T15:39:44.844Z,9.63
2022-12-12T15:44:49.229Z,9.97
2022-12-12T15:49:55.022Z,12.77
2022-12-12T15:55:03.186Z,11.13
2022-12-12T16:00:09.770Z,10.37
2022-12-12T16:05:26.953Z,12.57
2022-12-12T16:10:31.478Z,11.50
2022-12-12T16:15:37.734Z,15.10
2022-12-12T16:20:46.102Z,13.33
2022-12-12T16:25:51.404Z,14.87
2022-12-12T16:30:58.037Z,19.77
2022-12-12T16:36:03.500Z,16.50
2022-12-12T16:41:09.936Z,18.47
2022-12-12T16:46:19.799Z,14.30
2022-12-12T16:51:28.446Z,16.50
2022-12-12T16:56:32.964Z,19.70
2022-12-12T17:01:38.917Z,28.33
2022-12-12T17:06:42.299Z,22.03
2022-12-12T17:11:47.162Z,17.50
2022-12-12T17:16:51.076Z,14.00
2022-12-12T17:21:54.249Z,11.43
2022-12-12T17:26:58.929Z,11.83
2022-12-12T17:32:02.116Z,14.90
2022-12-12T17:37:05.217Z,19.27
2022-12-12T17:42:09.762Z,15.97
2022-12-12T17:47:13.035Z,14.17
2022-12-12T17:52:16.779Z,16.17
2022-12-12T17:57:25.217Z,17.77
2022-12-12T18:02:28.855Z,17.23
2022-12-12T18:07:31.973Z,16.23
2022-12-12T18:12:36.419Z,17.33
2022-12-12T18:17:40.694Z,18.70
2022-12-12T18:22:43.792Z,16.33
2022-12-12T18:27:48.264Z,20.17
2022-12-12T18:32:51.395Z,20.60
2022-12-12T18:37:54.492Z,20.70
2022-12-12T18:42:59.006Z,19.70
2022-12-12T18:48:02.218Z,20.00
2022-12-12T18:53:05.374Z,22.33
2022-12-12T18:58:10.906Z,23.80
2022-12-12T19:03:14.110Z,26.07
2022-12-12T19:08:17.368Z,20.47
2022-12-12T19:13:21.863Z,21.27
2022-12-12T19:18:25.230Z,20.67
2022-12-12T19:23:28.399Z,18.10
2022-12-12T19:28:33.450Z,16.57
2022-12-12T19:33:36.687Z,16.80
2022-12-12T19:38:39.841Z,15.13
2022-12-12T19:43:46.120Z,13.37
2022-12-12T19:48:50.016Z,12.23
2022-12-12T19:53:56.828Z,11.23
2022-12-12T19:59:02.593Z,11.90
2022-12-12T20:04:07.870Z,13.27
2022-12-12T20:09:11.785Z,11.07
2022-12-12T20:14:18.566Z,12.90
2022-12-12T20:19:22.133Z,12.87
2022-12-12T20:24:25.539Z,14.27
2022-12-12T20:29:30.091Z,12.43
2022-12-12T20:34:33.198Z,13.00
2022-12-12T20:39:37.408Z,12.73
2022-12-12T20:44:42.242Z,13.63
2022-12-12T20:49:45.561Z,13.70
2022-12-12T20:54:48.866Z,16.40
2022-12-12T20:59:54.836Z,14.10
2022-12-12T21:04:57.966Z,13.43
2022-12-12T21:10:01.161Z,13.23
2022-12-12T21:15:06.177Z,12.80
2022-12-12T21:20:10.142Z,16.23
2022-12-12T21:25:13.444Z,15.97
2022-12-12T21:30:18.308Z,14.63
2022-12-12T21:35:21.545Z,14.13
2022-12-12T21:40:24.727Z,12.17
2022-12-12T21:45:29.249Z,14.07
2022-12-12T21:50:32.427Z,13.23
2022-12-12T21:55:37.997Z,15.97
2022-12-12T22:00:42.619Z,13.73
2022-12-12T22:05:45.806Z,13.13
2022-12-12T22:10:54.352Z,14.47
2022-12-12T22:15:59.924Z,18.10
2022-12-12T22:21:05.253Z,16.47
2022-12-12T22:26:15.253Z,12.57
2022-12-12T22:31:20.497Z,11.40
2022-12-12T22:36:26.706Z,12.97
2022-12-12T22:41:30.991Z,15.30
2022-12-12T22:46:40.605Z,14.73
2022-12-12T22:51:45.866Z,13.60
2022-12-12T22:56:49.049Z,12.97
2022-12-12T23:01:53.621Z,13.83
2022-12-12T23:06:56.696Z,12.27
2022-12-12T23:11:59.919Z,13.70
2022-12-12T23:17:04.514Z,12.80
2022-12-12T23:22:07.748Z,10.87
2022-12-12T23:27:10.974Z,11.07
2022-12-12T23:32:15.635Z,10.43
2022-12-12T23:37:18.807Z,10.20
2022-12-12T23:42:22.058Z,11.33
2022-12-12T23:47:26.594Z,11.17
2022-12-12T23:52:29.748Z,10.23
2022-12-12T23:57:33.200Z,9.63
